Route Details

Aircraft Information
Group: Boeing 767-300BDSF
Types: B763
Route Data
Distance: 976nm
Duration: 2h 29m
Origin METAR: MROC 072300Z 10019G29KT 9999 FEW040 25/16 A2998 NOSIG
Dest. METAR: KMIA 072353Z 10010KT 10SM SCT040 SCT250 24/15 A3023 RMK AO2 SLP236 T02390150 10267 20233 53008 $
Freight Data
(for Feb 8, 2023)
Load Factor:
59%
Manifested Cargo: 69,253lbs
Financial History
Total Freight: 453,846lbs
Average Load: 0lbs/flt
Fuel Used: 158,468lbs
Avg. Fuel Used: 0lbs/flt
Fuel Expense: $79,979
Avg. Fuel Expense: $0
Avg. Fuel Cost: $0/lbs
Total Gross Income: $1,214,054
Pilot Pay: $1,135
Total Expenses: $225,622
Total Revenue: $904,348
Average Revenue: $0

Capitol Logistics 772




MROC
Juan Santamar?a International Airport
San Jose, CR
KMIA
Miami International Airport
Miami, US